createdAt,value
2019-05-21T00:00:04.980Z,998.85
2019-05-21T00:01:04.966Z,998.86
2019-05-21T00:02:04.968Z,998.85
2019-05-21T00:03:04.964Z,998.89
2019-05-21T00:04:04.960Z,998.92
2019-05-21T00:05:04.965Z,998.90
2019-05-21T00:06:04.948Z,998.96
2019-05-21T00:07:04.935Z,998.87
2019-05-21T00:08:04.929Z,998.83
2019-05-21T00:09:04.920Z,998.86
2019-05-21T00:10:04.924Z,998.86
2019-05-21T00:11:04.913Z,998.85
2019-05-21T00:12:04.918Z,998.84
2019-05-21T00:13:04.900Z,998.86
2019-05-21T00:14:04.895Z,998.84
2019-05-21T00:15:04.889Z,998.85
2019-05-21T00:16:04.895Z,998.84
2019-05-21T00:17:04.884Z,998.87
2019-05-21T00:18:04.878Z,998.91
2019-05-21T00:19:04.869Z,998.95
2019-05-21T00:20:04.874Z,998.96
2019-05-21T00:21:04.879Z,998.96
2019-05-21T00:22:04.855Z,998.96
2019-05-21T00:23:04.842Z,999.02
2019-05-21T00:24:04.846Z,999.03
2019-05-21T00:25:04.843Z,999.05
2019-05-21T00:26:04.825Z,999.03
2019-05-21T00:27:04.825Z,999.03
2019-05-21T00:28:06.463Z,999.03
2019-05-21T00:29:04.819Z,998.99
2019-05-21T00:30:04.814Z,999.04
2019-05-21T00:31:04.859Z,999.06
2019-05-21T00:32:04.795Z,999.01
2019-05-21T00:33:04.801Z,999.06
2019-05-21T00:34:04.789Z,999.05
2019-05-21T00:35:04.783Z,999.08
2019-05-21T00:36:04.780Z,999.12
2019-05-21T00:37:04.790Z,999.07
2019-05-21T00:38:04.770Z,999.09
2019-05-21T00:39:04.764Z,999.13
2019-05-21T00:40:04.783Z,999.19
2019-05-21T00:41:04.749Z,999.20
2019-05-21T00:42:04.846Z,999.13
2019-05-21T00:43:04.747Z,999.19
2019-05-21T00:44:04.732Z,999.20
2019-05-21T00:45:04.724Z,999.19
2019-05-21T00:46:04.718Z,999.24
2019-05-21T00:47:04.743Z,999.19
2019-05-21T00:48:05.890Z,999.22
2019-05-21T00:49:04.756Z,999.22
2019-05-21T00:50:04.715Z,999.23
2019-05-21T00:51:04.700Z,999.28
2019-05-21T00:52:08.538Z,999.22
2019-05-21T00:53:04.684Z,999.25
2019-05-21T00:54:04.678Z,999.23
2019-05-21T00:55:04.665Z,999.25
2019-05-21T00:56:04.668Z,999.22
2019-05-21T00:57:04.666Z,999.26
2019-05-21T00:58:04.669Z,999.24
2019-05-21T00:59:04.649Z,999.21
2019-05-21T01:00:04.727Z,999.22
2019-05-21T01:01:04.641Z,999.21
2019-05-21T01:02:04.629Z,999.24
2019-05-21T01:03:04.627Z,999.17
2019-05-21T01:04:04.623Z,999.16
2019-05-21T01:05:04.617Z,999.13
2019-05-21T01:06:04.602Z,999.17
2019-05-21T01:07:04.617Z,999.21
2019-05-21T01:08:04.601Z,999.22
2019-05-21T01:09:04.601Z,999.20
2019-05-21T01:10:04.607Z,999.25
2019-05-21T01:11:04.581Z,999.22
2019-05-21T01:12:04.592Z,999.21
2019-05-21T01:13:04.565Z,999.24
2019-05-21T01:14:04.586Z,999.24
2019-05-21T01:15:04.563Z,999.24
2019-05-21T01:16:04.552Z,999.28
2019-05-21T01:17:04.551Z,999.27
2019-05-21T01:18:05.555Z,999.29
2019-05-21T01:19:04.531Z,999.25
2019-05-21T01:20:04.543Z,999.30
2019-05-21T01:21:06.484Z,999.29
2019-05-21T01:22:04.521Z,999.30
2019-05-21T01:23:06.491Z,999.30
2019-05-21T01:24:04.536Z,999.29
2019-05-21T01:25:04.533Z,999.31
2019-05-21T01:26:04.497Z,999.27
2019-05-21T01:27:05.479Z,999.25
2019-05-21T01:28:04.486Z,999.25
2019-05-21T01:29:05.991Z,999.24
2019-05-21T01:30:04.476Z,999.29
2019-05-21T01:31:04.468Z,999.25
2019-05-21T01:32:04.462Z,999.22
2019-05-21T01:33:05.996Z,999.31
2019-05-21T01:34:04.463Z,999.24
2019-05-21T01:35:16.808Z,999.24
2019-05-21T01:36:04.434Z,999.22
2019-05-21T01:37:04.431Z,999.22
2019-05-21T01:38:04.434Z,999.20
2019-05-21T01:39:04.420Z,999.19
2019-05-21T01:40:04.424Z,999.18
2019-05-21T01:41:05.994Z,999.15
2019-05-21T01:42:05.987Z,999.14
2019-05-21T01:43:05.986Z,999.13
2019-05-21T01:44:05.984Z,999.17
2019-05-21T01:45:05.986Z,999.10
2019-05-21T01:46:04.383Z,999.15
2019-05-21T01:47:06.006Z,999.13
2019-05-21T01:48:04.367Z,999.12
2019-05-21T01:49:06.000Z,999.13
2019-05-21T01:50:04.371Z,999.12
2019-05-21T01:51:04.353Z,999.15
2019-05-21T01:52:04.355Z,999.15
2019-05-21T01:53:04.347Z,999.16
2019-05-21T01:54:04.342Z,999.12
2019-05-21T01:55:04.335Z,999.15
2019-05-21T01:56:04.321Z,999.13
2019-05-21T01:57:04.357Z,999.11
2019-05-21T01:58:04.326Z,999.12
2019-05-21T01:59:04.315Z,999.11
2019-05-21T02:00:04.305Z,999.09
2019-05-21T02:01:04.308Z,999.11
2019-05-21T02:02:04.288Z,999.11
2019-05-21T02:03:04.285Z,999.11
2019-05-21T02:04:04.325Z,999.09
2019-05-21T02:05:04.286Z,999.09
2019-05-21T02:06:04.282Z,999.10
2019-05-21T02:07:04.294Z,999.09
2019-05-21T02:08:04.257Z,999.03
2019-05-21T02:09:04.250Z,999.08
2019-05-21T02:10:04.244Z,999.07
2019-05-21T02:11:04.238Z,999.09
2019-05-21T02:12:04.251Z,999.12
2019-05-21T02:13:04.264Z,999.18
2019-05-21T02:14:04.231Z,999.19
2019-05-21T02:15:04.222Z,999.20
2019-05-21T02:16:04.211Z,999.19
2019-05-21T02:17:04.208Z,999.18
2019-05-21T02:18:04.210Z,999.18
2019-05-21T02:19:04.199Z,999.19
2019-05-21T02:20:05.995Z,999.23
2019-05-21T02:21:04.180Z,999.19
2019-05-21T02:22:04.181Z,999.19
2019-05-21T02:23:05.996Z,999.22
2019-05-21T02:24:05.281Z,999.16
2019-05-21T02:25:04.167Z,999.16
2019-05-21T02:26:04.161Z,999.19
2019-05-21T02:27:05.148Z,999.21
2019-05-21T02:28:04.145Z,999.17
2019-05-21T02:29:05.997Z,999.21
2019-05-21T02:30:07.233Z,999.20
2019-05-21T02:31:04.146Z,999.20
2019-05-21T02:32:06.014Z,999.21
2019-05-21T02:33:04.128Z,999.22
2019-05-21T02:34:04.122Z,999.18
2019-05-21T02:35:04.104Z,999.15
2019-05-21T02:36:04.102Z,999.23
2019-05-21T02:37:06.374Z,999.28
2019-05-21T02:38:04.096Z,999.26
2019-05-21T02:39:04.094Z,999.28
2019-05-21T02:40:04.073Z,999.33
2019-05-21T02:41:04.070Z,999.36
2019-05-21T02:42:04.065Z,999.41
2019-05-21T02:43:04.055Z,999.42
2019-05-21T02:44:04.062Z,999.41
2019-05-21T02:45:04.058Z,999.41
2019-05-21T02:46:04.062Z,999.42
2019-05-21T02:47:04.051Z,999.39
2019-05-21T02:48:04.029Z,999.40
2019-05-21T02:49:04.023Z,999.39
2019-05-21T02:50:04.026Z,999.42
2019-05-21T02:51:04.018Z,999.34
2019-05-21T02:52:04.005Z,999.39
2019-05-21T02:53:04.015Z,999.37
2019-05-21T02:54:04.060Z,999.37
2019-05-21T02:55:03.984Z,999.33
2019-05-21T02:56:03.988Z,999.35
2019-05-21T02:57:05.509Z,999.36
2019-05-21T02:58:03.980Z,999.41
2019-05-21T02:59:03.975Z,999.42
2019-05-21T03:00:03.968Z,999.45
2019-05-21T03:01:03.980Z,999.46
2019-05-21T03:02:03.978Z,999.50
2019-05-21T03:03:03.940Z,999.54
2019-05-21T03:04:03.941Z,999.51
2019-05-21T03:05:03.933Z,999.56
2019-05-21T03:06:13.709Z,999.58
2019-05-21T03:07:03.925Z,999.57
2019-05-21T03:08:03.930Z,999.59
2019-05-21T03:09:03.917Z,999.58
2019-05-21T03:10:03.913Z,999.55
2019-05-21T03:11:03.908Z,999.56
2019-05-21T03:12:03.897Z,999.55
2019-05-21T03:13:03.892Z,999.54
2019-05-21T03:14:03.891Z,999.61
2019-05-21T03:15:03.876Z,999.56
2019-05-21T03:16:03.883Z,999.57
2019-05-21T03:17:03.870Z,999.59
2019-05-21T03:18:03.862Z,999.58
2019-05-21T03:19:03.863Z,999.59
2019-05-21T03:20:03.843Z,999.63
2019-05-21T03:21:03.838Z,999.66
2019-05-21T03:22:03.837Z,999.67
2019-05-21T03:23:03.844Z,999.68
2019-05-21T03:24:03.824Z,999.74
2019-05-21T03:25:03.826Z,999.71
2019-05-21T03:26:03.821Z,999.70
2019-05-21T03:27:03.804Z,999.72
2019-05-21T03:28:03.805Z,999.73
2019-05-21T03:29:03.798Z,999.67
2019-05-21T03:30:03.795Z,999.72
2019-05-21T03:31:03.790Z,999.72
2019-05-21T03:32:03.775Z,999.75
2019-05-21T03:33:03.783Z,999.69
2019-05-21T03:34:05.520Z,999.73
2019-05-21T03:35:03.778Z,999.75
2019-05-21T03:36:04.751Z,999.71
2019-05-21T03:37:03.753Z,999.72
2019-05-21T03:38:03.743Z,999.73
2019-05-21T03:39:03.737Z,999.77
2019-05-21T03:40:03.739Z,999.75
2019-05-21T03:41:03.729Z,999.81
2019-05-21T03:42:05.525Z,999.83
2019-05-21T03:43:05.530Z,999.83
2019-05-21T03:44:05.527Z,999.82
2019-05-21T03:45:07.365Z,999.84
2019-05-21T03:46:03.718Z,999.86
2019-05-21T03:47:03.690Z,999.84
2019-05-21T03:48:03.706Z,999.88
2019-05-21T03:49:03.689Z,999.88
2019-05-21T03:50:03.685Z,999.95
2019-05-21T03:51:03.673Z,999.91
2019-05-21T03:52:03.692Z,999.92
2019-05-21T03:53:03.655Z,999.95
2019-05-21T03:54:03.652Z,999.95
2019-05-21T03:55:03.708Z,999.92
2019-05-21T03:56:03.640Z,999.92
2019-05-21T03:57:05.525Z,999.96
2019-05-21T03:58:03.634Z,999.94
2019-05-21T03:59:03.646Z,999.94
2019-05-21T04:00:03.639Z,999.95
2019-05-21T04:01:05.528Z,999.94
2019-05-21T04:02:05.539Z,999.94
2019-05-21T04:03:05.529Z,999.93
2019-05-21T04:04:05.529Z,999.87
2019-05-21T04:05:05.539Z,999.90
2019-05-21T04:06:03.594Z,999.84
2019-05-21T04:07:05.528Z,999.84
2019-05-21T04:08:03.593Z,999.84
2019-05-21T04:09:05.532Z,999.81
2019-05-21T04:10:05.528Z,999.85
2019-05-21T04:11:03.552Z,999.81
2019-05-21T04:12:05.541Z,999.82
2019-05-21T04:13:05.543Z,999.83
2019-05-21T04:14:03.546Z,999.86
2019-05-21T04:15:05.042Z,999.83
2019-05-21T04:16:05.041Z,999.86
2019-05-21T04:17:03.535Z,999.87
2019-05-21T04:18:03.529Z,999.90
2019-05-21T04:19:03.513Z,999.90
2019-05-21T04:20:03.506Z,999.87
2019-05-21T04:21:03.527Z,999.91
2019-05-21T04:22:03.499Z,999.90
2019-05-21T04:23:05.057Z,999.91
2019-05-21T04:24:08.763Z,999.96
2019-05-21T04:25:03.477Z,999.95
2019-05-21T04:26:03.473Z,999.99
2019-05-21T04:27:03.540Z,1000.04
2019-05-21T04:28:05.038Z,1000.01
2019-05-21T04:29:03.453Z,1000.00
2019-05-21T04:30:03.463Z,999.97
2019-05-21T04:31:03.437Z,1000.00
2019-05-21T04:32:03.442Z,1000.09
2019-05-21T04:33:03.428Z,1000.07
2019-05-21T04:34:03.428Z,1000.06
2019-05-21T04:35:03.423Z,1000.08
2019-05-21T04:36:03.406Z,1000.04
2019-05-21T04:37:10.582Z,1000.05
2019-05-21T04:38:03.415Z,1000.07
2019-05-21T04:39:03.391Z,1000.09
2019-05-21T04:40:03.390Z,1000.03
2019-05-21T04:41:03.386Z,1000.01
2019-05-21T04:42:03.374Z,1000.00
2019-05-21T04:43:03.391Z,1000.01
2019-05-21T04:44:03.382Z,1000.00
2019-05-21T04:45:03.363Z,1000.01
2019-05-21T04:46:03.400Z,999.98
2019-05-21T04:47:03.374Z,1000.02
2019-05-21T04:48:03.344Z,1000.03
2019-05-21T04:49:03.342Z,1000.08
2019-05-21T04:50:03.348Z,1000.05
2019-05-21T04:51:03.327Z,1000.04
2019-05-21T04:52:03.341Z,1000.04
2019-05-21T04:53:03.389Z,1000.01
2019-05-21T04:54:03.339Z,999.99
2019-05-21T04:55:03.305Z,999.96
2019-05-21T04:56:03.295Z,999.95
2019-05-21T04:57:03.295Z,999.96
2019-05-21T04:58:03.284Z,999.96
2019-05-21T04:59:03.281Z,999.98
2019-05-21T05:00:03.271Z,999.97
2019-05-21T05:01:03.273Z,1000.03
2019-05-21T05:02:03.277Z,1000.03
2019-05-21T05:03:03.258Z,1000.07
2019-05-21T05:04:03.406Z,1000.06
2019-05-21T05:05:03.346Z,1000.08
2019-05-21T05:06:03.251Z,1000.10
2019-05-21T05:07:03.243Z,1000.12
2019-05-21T05:08:03.275Z,1000.12
2019-05-21T05:09:03.223Z,1000.20
2019-05-21T05:10:03.223Z,1000.18
2019-05-21T05:11:03.232Z,1000.23
2019-05-21T05:12:03.212Z,1000.25
2019-05-21T05:13:03.279Z,1000.22
2019-05-21T05:14:03.237Z,1000.24
2019-05-21T05:15:03.190Z,1000.26
2019-05-21T05:16:04.375Z,1000.24
2019-05-21T05:17:03.188Z,1000.24
2019-05-21T05:18:03.185Z,1000.21
2019-05-21T05:19:03.178Z,1000.20
2019-05-21T05:20:03.171Z,1000.23
2019-05-21T05:21:03.160Z,1000.25
2019-05-21T05:22:03.159Z,1000.27
2019-05-21T05:23:03.151Z,1000.22
2019-05-21T05:24:03.177Z,1000.23
2019-05-21T05:25:03.161Z,1000.22
2019-05-21T05:26:03.153Z,1000.21
2019-05-21T05:27:03.138Z,1000.22
2019-05-21T05:28:03.127Z,1000.21
2019-05-21T05:29:03.124Z,1000.18
2019-05-21T05:30:03.128Z,1000.15
2019-05-21T05:31:03.122Z,1000.16
2019-05-21T05:32:03.106Z,1000.19
2019-05-21T05:33:03.116Z,1000.21
2019-05-21T05:34:03.097Z,1000.18
2019-05-21T05:35:03.108Z,1000.19
2019-05-21T05:36:03.091Z,1000.21
2019-05-21T05:37:03.126Z,1000.25
2019-05-21T05:38:03.088Z,1000.25
2019-05-21T05:39:03.093Z,1000.31
2019-05-21T05:40:03.089Z,1000.29
2019-05-21T05:41:03.063Z,1000.29
2019-05-21T05:42:03.056Z,1000.31
2019-05-21T05:43:03.065Z,1000.28
2019-05-21T05:44:03.065Z,1000.29
2019-05-21T05:45:03.043Z,1000.31
2019-05-21T05:46:03.029Z,1000.31
2019-05-21T05:47:03.028Z,1000.29
2019-05-21T05:48:03.024Z,1000.31
2019-05-21T05:49:03.047Z,1000.29
2019-05-21T05:50:03.046Z,1000.28
2019-05-21T05:51:03.015Z,1000.30
2019-05-21T05:52:03.011Z,1000.31
2019-05-21T05:53:02.994Z,1000.33
2019-05-21T05:54:02.987Z,1000.26
2019-05-21T05:55:02.981Z,1000.29
2019-05-21T05:56:02.978Z,1000.31
2019-05-21T05:57:02.978Z,1000.35
2019-05-21T05:58:02.968Z,1000.34
2019-05-21T05:59:02.969Z,1000.34
2019-05-21T06:00:02.965Z,1000.33
2019-05-21T06:01:02.970Z,1000.30
2019-05-21T06:02:02.979Z,1000.34
2019-05-21T06:03:02.941Z,1000.38
2019-05-21T06:04:02.934Z,1000.40
2019-05-21T06:05:03.008Z,1000.38
2019-05-21T06:06:02.918Z,1000.39
2019-05-21T06:07:02.939Z,1000.37
2019-05-21T06:08:02.943Z,1000.38
2019-05-21T06:09:02.917Z,1000.39
2019-05-21T06:10:02.931Z,1000.40
2019-05-21T06:11:02.903Z,1000.40
2019-05-21T06:12:03.006Z,1000.40
2019-05-21T06:13:02.880Z,1000.39
2019-05-21T06:14:02.892Z,1000.42
2019-05-21T06:15:03.197Z,1000.39
2019-05-21T06:16:04.569Z,1000.40
2019-05-21T06:17:02.950Z,1000.38
2019-05-21T06:18:02.870Z,1000.38
2019-05-21T06:19:02.849Z,1000.38
2019-05-21T06:20:02.855Z,1000.39
2019-05-21T06:21:02.844Z,1000.35
2019-05-21T06:22:02.855Z,1000.34
2019-05-21T06:23:02.838Z,1000.38
2019-05-21T06:24:02.841Z,1000.29
2019-05-21T06:25:02.866Z,1000.32
2019-05-21T06:26:02.812Z,1000.33
2019-05-21T06:27:02.807Z,1000.30
2019-05-21T06:28:02.806Z,1000.35
2019-05-21T06:29:02.837Z,1000.36
2019-05-21T06:30:02.802Z,1000.34
2019-05-21T06:31:02.788Z,1000.36
2019-05-21T06:32:02.844Z,1000.42
2019-05-21T06:33:02.803Z,1000.39
2019-05-21T06:34:02.772Z,1000.41
2019-05-21T06:35:02.769Z,1000.41
2019-05-21T06:36:02.781Z,1000.42
2019-05-21T06:37:02.785Z,1000.43
2019-05-21T06:38:16.660Z,1000.42
2019-05-21T06:39:02.771Z,1000.42
2019-05-21T06:40:02.759Z,1000.39
2019-05-21T06:41:02.766Z,1000.45
2019-05-21T06:42:02.731Z,1000.46
2019-05-21T06:43:02.726Z,1000.48
2019-05-21T06:44:02.714Z,1000.47
2019-05-21T06:45:03.234Z,1000.47
2019-05-21T06:46:02.705Z,1000.46
2019-05-21T06:47:02.712Z,1000.50
2019-05-21T06:48:02.700Z,1000.54
2019-05-21T06:49:02.697Z,1000.57
2019-05-21T06:50:02.685Z,1000.57
2019-05-21T06:51:02.676Z,1000.56
2019-05-21T06:52:02.683Z,1000.59
2019-05-21T06:53:02.692Z,1000.59
2019-05-21T06:54:02.839Z,1000.61
2019-05-21T06:55:02.664Z,1000.60
2019-05-21T06:56:06.527Z,1000.63
2019-05-21T06:57:02.686Z,1000.60
2019-05-21T06:58:02.663Z,1000.61
2019-05-21T06:59:02.642Z,1000.58
2019-05-21T07:00:02.638Z,1000.60
2019-05-21T07:01:02.634Z,1000.58
2019-05-21T07:02:02.653Z,1000.59
2019-05-21T07:03:02.620Z,1000.58
2019-05-21T07:04:02.613Z,1000.59
2019-05-21T07:05:02.650Z,1000.60
2019-05-21T07:06:02.632Z,1000.60
2019-05-21T07:07:02.603Z,1000.66
2019-05-21T07:08:02.597Z,1000.62
2019-05-21T07:09:02.591Z,1000.66
2019-05-21T07:10:02.581Z,1000.64
2019-05-21T07:11:02.578Z,1000.68
2019-05-21T07:12:02.579Z,1000.63
2019-05-21T07:13:02.569Z,1000.61
2019-05-21T07:14:02.567Z,1000.57
2019-05-21T07:15:02.560Z,1000.57
2019-05-21T07:16:02.552Z,1000.56
2019-05-21T07:17:02.554Z,1000.57
2019-05-21T07:18:02.539Z,1000.54
2019-05-21T07:19:02.549Z,1000.55
2019-05-21T07:20:02.536Z,1000.58
2019-05-21T07:21:02.531Z,1000.59
2019-05-21T07:22:12.237Z,1000.59
2019-05-21T07:23:02.644Z,1000.59
2019-05-21T07:24:02.519Z,1000.61
2019-05-21T07:25:02.528Z,1000.60
2019-05-21T07:26:02.507Z,1000.65
2019-05-21T07:27:02.501Z,1000.61
2019-05-21T07:28:02.491Z,1000.63
2019-05-21T07:29:02.523Z,1000.67
2019-05-21T07:30:02.483Z,1000.68
2019-05-21T07:31:02.481Z,1000.71
2019-05-21T07:32:02.532Z,1000.71
2019-05-21T07:33:02.593Z,1000.77
2019-05-21T07:34:02.471Z,1000.75
2019-05-21T07:35:02.465Z,1000.72
2019-05-21T07:36:02.455Z,1000.81
2019-05-21T07:37:02.581Z,1000.83
2019-05-21T07:38:02.447Z,1000.77
2019-05-21T07:39:02.443Z,1000.78
2019-05-21T07:40:02.434Z,1000.78
2019-05-21T07:41:02.664Z,1000.78
2019-05-21T07:42:02.427Z,1000.81
2019-05-21T07:43:02.415Z,1000.79
2019-05-21T07:44:02.419Z,1000.80
2019-05-21T07:45:02.749Z,1000.77
2019-05-21T07:46:02.462Z,1000.81
2019-05-21T07:47:02.404Z,1000.84
2019-05-21T07:48:02.395Z,1000.78
2019-05-21T07:49:02.388Z,1000.77
2019-05-21T07:50:02.383Z,1000.79
2019-05-21T07:51:02.401Z,1000.77
2019-05-21T07:52:02.381Z,1000.79
2019-05-21T07:53:02.375Z,1000.76
2019-05-21T07:54:02.372Z,1000.79
2019-05-21T07:55:02.373Z,1000.78
2019-05-21T07:56:02.555Z,1000.81
2019-05-21T07:57:02.358Z,1000.79
2019-05-21T07:58:02.350Z,1000.83
2019-05-21T07:59:02.389Z,1000.80
2019-05-21T08:00:02.340Z,1000.79
2019-05-21T08:01:02.335Z,1000.81
2019-05-21T08:02:02.476Z,1000.83
2019-05-21T08:03:02.330Z,1000.83
2019-05-21T08:04:02.498Z,1000.79
2019-05-21T08:05:02.670Z,1000.85
2019-05-21T08:06:02.332Z,1000.83
2019-05-21T08:07:02.315Z,1000.81
2019-05-21T08:08:02.302Z,1000.81
2019-05-21T08:09:13.478Z,1000.87
2019-05-21T08:10:02.310Z,1000.88
2019-05-21T08:11:02.296Z,1000.89
2019-05-21T08:12:18.282Z,1000.92
2019-05-21T08:13:02.288Z,1000.90
2019-05-21T08:14:02.284Z,1000.89
2019-05-21T08:15:02.270Z,1000.87
2019-05-21T08:16:02.267Z,1000.88
2019-05-21T08:17:02.263Z,1000.90
2019-05-21T08:18:02.257Z,1000.92
2019-05-21T08:19:02.280Z,1000.89
2019-05-21T08:20:09.126Z,1000.87
2019-05-21T08:21:02.234Z,1000.95
2019-05-21T08:22:02.234Z,1000.96
2019-05-21T08:23:02.241Z,1000.94
2019-05-21T08:24:02.231Z,1000.98
2019-05-21T08:25:02.222Z,1000.95
2019-05-21T08:26:02.211Z,1000.98
2019-05-21T08:27:02.212Z,1001.00
2019-05-21T08:28:02.208Z,1001.02
2019-05-21T08:29:02.204Z,1001.05
2019-05-21T08:30:02.204Z,1001.00
2019-05-21T08:31:02.536Z,1001.04
2019-05-21T08:32:02.189Z,1000.97
2019-05-21T08:33:02.181Z,1001.02
2019-05-21T08:34:02.173Z,1001.00
2019-05-21T08:35:02.377Z,1001.03
2019-05-21T08:36:02.226Z,1001.05
2019-05-21T08:37:02.163Z,1001.05
2019-05-21T08:38:02.169Z,1001.11
2019-05-21T08:39:02.156Z,1001.08
2019-05-21T08:40:02.149Z,1001.06
2019-05-21T08:41:02.145Z,1001.06
2019-05-21T08:42:02.141Z,1001.07
2019-05-21T08:43:02.138Z,1001.09
2019-05-21T08:44:02.130Z,1001.08
2019-05-21T08:45:02.886Z,1001.11
2019-05-21T08:46:02.116Z,1001.06
2019-05-21T08:47:02.113Z,1001.07
2019-05-21T08:48:02.119Z,1001.09
2019-05-21T08:49:02.136Z,1001.07
2019-05-21T08:50:02.105Z,1001.09
2019-05-21T08:51:02.122Z,1001.10
2019-05-21T08:52:02.089Z,1001.13
2019-05-21T08:53:02.086Z,1001.11
2019-05-21T08:54:02.083Z,1001.12
2019-05-21T08:55:02.079Z,1001.13
2019-05-21T08:56:03.622Z,1001.12
2019-05-21T08:57:03.639Z,1001.13
2019-05-21T08:58:06.947Z,1001.14
2019-05-21T08:59:02.060Z,1001.13
2019-05-21T09:00:02.071Z,1001.07
2019-05-21T09:01:02.076Z,1001.09
2019-05-21T09:02:02.050Z,1001.11
2019-05-21T09:03:02.047Z,1001.06
2019-05-21T09:04:02.040Z,1001.08
2019-05-21T09:05:02.036Z,1001.18
2019-05-21T09:06:02.026Z,1001.13
2019-05-21T09:07:02.022Z,1001.09
2019-05-21T09:08:02.024Z,1001.16
2019-05-21T09:09:02.022Z,1001.12
2019-05-21T09:10:02.051Z,1001.17
2019-05-21T09:11:02.055Z,1001.21
2019-05-21T09:12:02.002Z,1001.24
2019-05-21T09:13:01.997Z,1001.25
2019-05-21T09:14:02.008Z,1001.24
2019-05-21T09:15:02.008Z,1001.26
2019-05-21T09:16:01.998Z,1001.22
2019-05-21T09:17:02.042Z,1001.23
2019-05-21T09:18:01.975Z,1001.20
2019-05-21T09:19:01.986Z,1001.24
2019-05-21T09:20:02.065Z,1001.17
2019-05-21T09:21:01.969Z,1001.24
2019-05-21T09:22:01.965Z,1001.27
2019-05-21T09:23:01.961Z,1001.25
2019-05-21T09:24:01.948Z,1001.32
2019-05-21T09:25:02.475Z,1001.28
2019-05-21T09:26:01.941Z,1001.31
2019-05-21T09:27:01.948Z,1001.31
2019-05-21T09:28:01.942Z,1001.29
2019-05-21T09:29:01.952Z,1001.32
2019-05-21T09:30:02.029Z,1001.30
2019-05-21T09:31:02.328Z,1001.37
2019-05-21T09:32:01.919Z,1001.34
2019-05-21T09:33:01.919Z,1001.32
2019-05-21T09:34:01.918Z,1001.37
2019-05-21T09:35:01.907Z,1001.34
2019-05-21T09:36:01.897Z,1001.39
2019-05-21T09:37:01.892Z,1001.34
2019-05-21T09:38:01.892Z,1001.40
2019-05-21T09:39:01.883Z,1001.43
2019-05-21T09:40:01.989Z,1001.39
2019-05-21T09:41:01.883Z,1001.34
2019-05-21T09:42:01.938Z,1001.34
2019-05-21T09:43:01.886Z,1001.38
2019-05-21T09:44:01.866Z,1001.34
2019-05-21T09:45:01.859Z,1001.39
2019-05-21T09:46:01.859Z,1001.34
2019-05-21T09:47:01.873Z,1001.32
2019-05-21T09:48:01.847Z,1001.36
2019-05-21T09:49:01.843Z,1001.36
2019-05-21T09:50:03.099Z,1001.37
2019-05-21T09:51:01.833Z,1001.37
2019-05-21T09:52:01.847Z,1001.35
2019-05-21T09:53:01.840Z,1001.35
2019-05-21T09:54:01.831Z,1001.33
2019-05-21T09:55:01.826Z,1001.34
2019-05-21T09:56:01.851Z,1001.34
2019-05-21T09:57:01.810Z,1001.31
2019-05-21T09:58:01.804Z,1001.38
2019-05-21T09:59:01.802Z,1001.37
2019-05-21T10:00:01.854Z,1001.34
2019-05-21T10:01:01.803Z,1001.34
2019-05-21T10:02:01.789Z,1001.34
2019-05-21T10:03:01.783Z,1001.32
2019-05-21T10:04:01.788Z,1001.30
2019-05-21T10:05:01.794Z,1001.33
2019-05-21T10:06:01.777Z,1001.28
2019-05-21T10:07:01.773Z,1001.34
2019-05-21T10:08:01.779Z,1001.32
2019-05-21T10:09:01.764Z,1001.34
2019-05-21T10:10:01.806Z,1001.35
2019-05-21T10:11:01.754Z,1001.36
2019-05-21T10:12:01.765Z,1001.42
2019-05-21T10:13:01.751Z,1001.35
2019-05-21T10:14:01.747Z,1001.37
2019-05-21T10:15:01.749Z,1001.40
2019-05-21T10:16:01.839Z,1001.40
2019-05-21T10:17:01.737Z,1001.37
2019-05-21T10:18:01.734Z,1001.34
2019-05-21T10:19:01.737Z,1001.38
2019-05-21T10:20:01.730Z,1001.40
2019-05-21T10:21:01.718Z,1001.42
2019-05-21T10:22:01.753Z,1001.43
2019-05-21T10:23:01.828Z,1001.44
2019-05-21T10:24:01.714Z,1001.45
2019-05-21T10:25:01.712Z,1001.39
2019-05-21T10:26:01.765Z,1001.42
2019-05-21T10:27:03.575Z,1001.38
2019-05-21T10:28:01.686Z,1001.39
2019-05-21T10:29:01.684Z,1001.45
2019-05-21T10:30:01.721Z,1001.42
2019-05-21T10:31:01.674Z,1001.39
2019-05-21T10:32:01.677Z,1001.43
2019-05-21T10:33:01.675Z,1001.43
2019-05-21T10:34:01.664Z,1001.41
2019-05-21T10:35:01.662Z,1001.42
2019-05-21T10:36:01.661Z,1001.38
2019-05-21T10:37:01.726Z,1001.43
2019-05-21T10:38:01.653Z,1001.45
2019-05-21T10:39:01.656Z,1001.45
2019-05-21T10:40:01.856Z,1001.45
2019-05-21T10:41:01.673Z,1001.48
2019-05-21T10:42:01.632Z,1001.50
2019-05-21T10:43:01.630Z,1001.51
2019-05-21T10:44:01.630Z,1001.57
2019-05-21T10:45:01.652Z,1001.54
2019-05-21T10:46:01.630Z,1001.51
2019-05-21T10:47:01.622Z,1001.58
2019-05-21T10:48:01.609Z,1001.54
2019-05-21T10:49:01.611Z,1001.53
2019-05-21T10:50:01.609Z,1001.53
2019-05-21T10:51:01.606Z,1001.53
2019-05-21T10:52:01.610Z,1001.53
2019-05-21T10:53:01.596Z,1001.50
2019-05-21T10:54:01.592Z,1001.55
2019-05-21T10:55:01.586Z,1001.57
2019-05-21T10:56:01.589Z,1001.57
2019-05-21T10:57:01.730Z,1001.57
2019-05-21T10:58:01.575Z,1001.57
2019-05-21T10:59:01.570Z,1001.56
2019-05-21T11:00:01.876Z,1001.55
2019-05-21T11:01:01.567Z,1001.57
2019-05-21T11:02:01.570Z,1001.54
2019-05-21T11:03:01.586Z,1001.59
2019-05-21T11:04:01.556Z,1001.60
2019-05-21T11:05:01.552Z,1001.59
2019-05-21T11:06:10.284Z,1001.62
2019-05-21T11:07:01.619Z,1001.62
2019-05-21T11:08:22.758Z,1001.61
2019-05-21T11:09:01.533Z,1001.63
2019-05-21T11:10:01.571Z,1001.69
2019-05-21T11:11:01.531Z,1001.63
2019-05-21T11:12:01.527Z,1001.65
2019-05-21T11:13:01.555Z,1001.62
2019-05-21T11:14:01.526Z,1001.61
2019-05-21T11:15:01.535Z,1001.59
2019-05-21T11:16:01.533Z,1001.63
2019-05-21T11:17:01.525Z,1001.63
2019-05-21T11:18:10.642Z,1001.63
2019-05-21T11:19:01.498Z,1001.65
2019-05-21T11:20:01.513Z,1001.65
2019-05-21T11:21:01.512Z,1001.61
2019-05-21T11:22:01.489Z,1001.61
2019-05-21T11:23:01.490Z,1001.65
2019-05-21T11:24:01.521Z,1001.69
2019-05-21T11:25:01.485Z,1001.64
2019-05-21T11:26:01.492Z,1001.65
2019-05-21T11:27:04.626Z,1001.68
2019-05-21T11:28:05.326Z,1001.66
2019-05-21T11:29:01.534Z,1001.67
2019-05-21T11:30:01.465Z,1001.65
2019-05-21T11:31:01.457Z,1001.62
2019-05-21T11:32:01.458Z,1001.62
2019-05-21T11:33:01.457Z,1001.58
2019-05-21T11:34:01.473Z,1001.60
2019-05-21T11:35:01.456Z,1001.61
2019-05-21T11:36:01.447Z,1001.58
2019-05-21T11:37:01.444Z,1001.60
2019-05-21T11:38:01.439Z,1001.58
2019-05-21T11:39:01.434Z,1001.62
2019-05-21T11:40:01.424Z,1001.63
2019-05-21T11:41:01.454Z,1001.64
2019-05-21T11:42:01.416Z,1001.62
2019-05-21T11:43:01.448Z,1001.67
2019-05-21T11:44:01.414Z,1001.61
2019-05-21T11:45:01.413Z,1001.67
2019-05-21T11:46:03.100Z,1001.68
2019-05-21T11:47:01.406Z,1001.65
2019-05-21T11:48:01.415Z,1001.68
2019-05-21T11:49:01.394Z,1001.65
2019-05-21T11:50:01.394Z,1001.71
2019-05-21T11:51:01.385Z,1001.64
2019-05-21T11:52:01.390Z,1001.63
2019-05-21T11:53:01.385Z,1001.64
2019-05-21T11:54:01.373Z,1001.63
2019-05-21T11:55:01.398Z,1001.65
2019-05-21T11:56:01.419Z,1001.66
2019-05-21T11:57:01.412Z,1001.68
2019-05-21T11:58:01.378Z,1001.66
2019-05-21T11:59:01.445Z,1001.67
2019-05-21T12:00:01.358Z,1001.67
2019-05-21T12:01:01.475Z,1001.68
2019-05-21T12:02:01.356Z,1001.65
2019-05-21T12:03:01.361Z,1001.70
2019-05-21T12:04:01.344Z,1001.68
2019-05-21T12:05:01.353Z,1001.71
2019-05-21T12:06:01.339Z,1001.69
2019-05-21T12:07:03.497Z,1001.67
2019-05-21T12:08:01.324Z,1001.73
2019-05-21T12:09:01.322Z,1001.67
2019-05-21T12:10:01.325Z,1001.66
2019-05-21T12:11:01.321Z,1001.69
2019-05-21T12:12:01.323Z,1001.68
2019-05-21T12:13:01.311Z,1001.66
2019-05-21T12:14:01.301Z,1001.68